Time;durP1;ratioP1;P1;durP2;ratioP2;P2;SDS_P1;SDS_P2;PMS_P1;PMS_P2;Temp;Humidity;BMP_temperature;BMP_pressure;BME280_temperature;BME280_humidity;BME280_pressure;Samples;Min_cycle;Max_cycle;Signal;HPM_P1;HPM_P2
2021/10/29 00:02:05;;;;;;;11.63;7.22;;;;;;;10.77;75.81;100889.72;5055809;28;20025;-74
2021/10/29 00:04:30;;;;;;;13.73;7.05;;;;;;;10.75;75.75;100896.84;5055182;28;20035;-72
2021/10/29 00:06:55;;;;;;;22.15;7.53;;;;;;;10.70;75.69;100881.09;5055447;28;20102;-74
2021/10/29 00:09:20;;;;;;;14.40;7.10;;;;;;;10.75;75.55;100894.25;5055079;28;20078;-73
2021/10/29 00:11:46;;;;;;;17.10;7.47;;;;;;;10.66;75.74;100892.00;5055035;28;20035;-75
2021/10/29 00:14:11;;;;;;;10.80;7.10;;;;;;;10.64;76.05;100892.16;5055009;28;20025;-73
2021/10/29 00:16:36;;;;;;;18.08;7.90;;;;;;;10.66;75.82;100882.44;5054944;28;20056;-73
2021/10/29 00:19:02;;;;;;;15.65;7.38;;;;;;;10.56;76.02;100887.94;5054979;28;20055;-73
2021/10/29 00:21:28;;;;;;;14.75;7.90;;;;;;;10.57;76.24;100893.91;5054735;28;20060;-73
2021/10/29 00:23:56;;;;;;;12.73;7.80;;;;;;;10.51;76.65;100881.72;5054803;28;20460;-74
2021/10/29 00:26:21;;;;;;;13.23;7.75;;;;;;;10.51;76.54;100869.59;5036776;28;20028;-74
2021/10/29 00:28:46;;;;;;;12.27;7.20;;;;;;;10.53;76.41;100877.16;5054688;28;20028;-74
2021/10/29 00:31:12;;;;;;;15.20;7.85;;;;;;;10.47;76.15;100876.13;5054896;28;20052;-73
2021/10/29 00:33:37;;;;;;;12.00;7.15;;;;;;;10.42;76.43;100883.63;5054940;28;20086;-73
2021/10/29 00:36:03;;;;;;;17.13;7.38;;;;;;;10.42;76.54;100882.81;5054482;28;20020;-73
2021/10/29 00:38:28;;;;;;;15.45;7.32;;;;;;;10.37;76.62;100873.03;5054422;28;20033;-73
2021/10/29 00:40:54;;;;;;;11.80;7.20;;;;;;;10.42;76.44;100864.75;5054743;28;20021;-74
2021/10/29 00:43:19;;;;;;;10.95;7.00;;;;;;;10.39;76.60;100874.44;5054350;28;20382;-73
2021/10/29 00:45:45;;;;;;;13.43;7.63;;;;;;;10.32;76.95;100870.19;5054378;28;20021;-74
2021/10/29 00:48:12;;;;;;;14.82;7.90;;;;;;;10.38;76.81;100861.69;5036431;28;20382;-74
2021/10/29 00:50:38;;;;;;;12.90;7.40;;;;;;;10.26;76.98;100863.94;5054267;28;20406;-73
2021/10/29 00:53:04;;;;;;;14.52;7.18;;;;;;;10.27;76.92;100859.59;5054538;28;20104;-73
2021/10/29 00:55:29;;;;;;;12.98;7.45;;;;;;;10.23;76.98;100868.69;5036312;28;20021;-73
2021/10/29 00:57:54;;;;;;;17.88;7.63;;;;;;;10.25;76.33;100866.72;5054047;28;20025;-71
2021/10/29 01:00:22;;;;;;;13.63;7.75;;;;;;;10.19;77.05;100862.28;5054103;28;20048;-72
2021/10/29 01:02:47;;;;;;;16.77;7.78;;;;;;;10.18;76.98;100866.63;5053823;28;20074;-72
2021/10/29 01:05:13;;;;;;;12.02;7.78;;;;;;;10.08;77.95;100858.38;5036137;28;20422;-72
2021/10/29 01:07:38;;;;;;;13.25;7.72;;;;;;;10.12;77.34;100860.41;5053963;28;20021;-72
2021/10/29 01:10:05;;;;;;;16.08;7.75;;;;;;;10.04;77.31;100854.53;5036085;28;20361;-73
2021/10/29 01:12:30;;;;;;;16.55;7.70;;;;;;;10.06;77.39;100853.38;5053882;28;20391;-72
2021/10/29 01:14:57;;;;;;;21.00;8.18;;;;;;;10.07;77.38;100867.09;5053865;28;20028;-72
2021/10/29 01:17:23;;;;;;;20.40;8.50;;;;;;;9.97;77.96;100858.84;5053628;28;20051;-72
2021/10/29 01:19:53;;;;;;;12.25;7.28;;;;;;;10.00;77.77;100858.47;5053599;28;20103;-72
2021/10/29 01:22:19;;;;;;;16.15;7.55;;;;;;;10.01;77.40;100857.50;5053938;28;20100;-72
2021/10/29 01:24:45;;;;;;;15.90;7.97;;;;;;;10.05;77.28;100859.53;5053729;28;20052;-72
2021/10/29 01:27:11;;;;;;;20.70;8.10;;;;;;;10.05;77.25;100851.78;5035831;28;20422;-74
2021/10/29 01:29:38;;;;;;;16.40;8.07;;;;;;;10.09;77.08;100847.06;5035755;28;20013;-72
2021/10/29 01:32:03;;;;;;;15.88;8.20;;;;;;;10.06;77.36;100848.22;5035659;28;20540;-72
2021/10/29 01:34:29;;;;;;;14.15;7.93;;;;;;;9.97;77.71;100857.06;5053409;28;20033;-72
2021/10/29 01:36:55;;;;;;;14.50;7.78;;;;;;;9.93;77.72;100850.66;5053389;28;20021;-72
2021/10/29 01:39:20;;;;;;;15.10;8.00;;;;;;;9.99;77.36;100856.91;5035617;28;20073;-73
2021/10/29 01:41:45;;;;;;;14.15;8.38;;;;;;;9.98;77.45;100830.25;5035500;28;20037;-73
2021/10/29 01:44:13;;;;;;;15.65;8.10;;;;;;;9.99;77.40;100846.56;5053370;28;20028;-73
2021/10/29 01:46:38;;;;;;;15.40;8.18;;;;;;;10.00;77.59;100843.00;5053589;28;20391;-72
2021/10/29 01:49:04;;;;;;;17.35;8.02;;;;;;;10.08;76.79;100825.59;5035429;28;20027;-72
2021/10/29 01:51:29;;;;;;;15.00;7.72;;;;;;;10.01;77.28;100829.91;5053305;28;20128;-73
2021/10/29 01:53:55;;;;;;;16.63;8.35;;;;;;;10.06;77.03;100819.03;5035467;28;20021;-72
2021/10/29 01:56:20;;;;;;;15.63;8.65;;;;;;;10.08;76.93;100825.59;5053179;28;20075;-72
2021/10/29 01:58:46;;;;;;;13.50;7.88;;;;;;;10.08;76.93;100824.81;5035289;28;20013;-72
2021/10/29 02:01:11;;;;;;;14.20;8.20;;;;;;;10.01;77.07;100821.34;5053220;28;20029;-73
2021/10/29 02:03:37;;;;;;;17.23;8.10;;;;;;;9.98;77.53;100804.44;5053205;28;20548;-73
2021/10/29 02:06:02;;;;;;;17.88;8.13;;;;;;;10.00;77.43;100806.84;5053154;28;20041;-73
2021/10/29 02:08:28;;;;;;;16.70;8.02;;;;;;;9.98;77.57;100806.22;5035292;28;20028;-73
2021/10/29 02:10:54;;;;;;;16.83;8.07;;;;;;;9.99;77.31;100797.50;5053164;28;20029;-73
2021/10/29 02:13:20;;;;;;;16.88;8.00;;;;;;;10.06;77.40;100801.75;5035294;28;20387;-72
2021/10/29 02:19:07;;;;;;;15.48;7.32;;;;;;;10.05;77.04;100812.28;5057479;28;20047;-73
2021/10/29 02:21:32;;;;;;;19.25;8.43;;;;;;;10.06;77.14;100796.59;5056941;28;20045;-73
2021/10/29 02:23:58;;;;;;;14.32;7.63;;;;;;;10.08;77.26;100788.66;5057058;28;20387;-73
2021/10/29 02:26:24;;;;;;;14.73;8.23;;;;;;;10.09;77.16;100788.47;5056986;28;20021;-73
2021/10/29 02:28:50;;;;;;;16.77;7.90;;;;;;;10.15;76.95;100794.69;5039004;28;20429;-73
2021/10/29 02:31:16;;;;;;;15.63;7.68;;;;;;;10.07;77.00;100777.53;5057037;28;20028;-73
2021/10/29 02:33:41;;;;;;;15.63;8.32;;;;;;;10.09;77.04;100796.22;5038974;28;20028;-74
2021/10/29 02:36:07;;;;;;;18.13;8.07;;;;;;;10.12;77.03;100779.56;5038821;28;20027;-73
2021/10/29 02:38:33;;;;;;;19.08;9.25;;;;;;;10.10;77.10;100782.34;5057038;28;20425;-71
2021/10/29 02:40:58;;;;;;;16.23;7.80;;;;;;;10.10;76.99;100772.00;5056749;28;20036;-71
2021/10/29 02:43:23;;;;;;;14.98;7.90;;;;;;;10.13;77.14;100773.44;5056583;28;20095;-72
2021/10/29 02:45:48;;;;;;;14.48;8.07;;;;;;;10.13;77.11;100776.81;5038677;28;20021;-72
2021/10/29 02:48:14;;;;;;;16.70;7.90;;;;;;;10.22;76.37;100763.78;5038599;28;20028;-72
2021/10/29 02:50:39;;;;;;;15.88;7.70;;;;;;;10.21;76.93;100773.28;5038697;28;20024;-73
2021/10/29 02:53:05;;;;;;;16.55;7.55;;;;;;;10.16;76.78;100757.56;5056566;28;20433;-72
2021/10/29 02:55:31;;;;;;;13.07;7.07;;;;;;;10.16;76.82;100760.94;5056467;28;20024;-73
2021/10/29 02:57:57;;;;;;;15.25;7.47;;;;;;;10.16;77.12;100765.31;5056384;28;20024;-72
2021/10/29 03:00:22;;;;;;;13.40;7.72;;;;;;;10.20;76.81;100765.75;5038405;28;20387;-73
2021/10/29 03:02:48;;;;;;;17.23;7.78;;;;;;;10.17;77.33;100774.66;5056325;28;20032;-73
2021/10/29 03:05:13;;;;;;;12.15;7.35;;;;;;;10.22;76.76;100756.81;5056327;28;20036;-73
2021/10/29 03:07:40;;;;;;;13.35;7.45;;;;;;;10.27;76.74;100764.84;5038299;28;20025;-72
2021/10/29 03:10:07;;;;;;;16.70;7.80;;;;;;;10.20;76.92;100763.94;5038327;28;20379;-72
2021/10/29 03:12:33;;;;;;;19.02;7.82;;;;;;;10.27;76.64;100771.78;5055852;28;20451;-72
2021/10/29 03:14:58;;;;;;;15.73;7.82;;;;;;;10.25;76.80;100769.38;5056131;28;20387;-72
2021/10/29 03:17:24;;;;;;;23.02;7.50;;;;;;;10.37;76.27;100767.91;5056006;28;20032;-72
2021/10/29 03:19:50;;;;;;;14.90;7.82;;;;;;;10.45;75.90;100761.03;5037897;28;20104;-71
2021/10/29 03:22:15;;;;;;;13.82;7.38;;;;;;;10.44;76.16;100749.88;5055929;28;20024;-72
2021/10/29 03:24:40;;;;;;;17.05;7.45;;;;;;;10.41;76.12;100757.19;5055842;28;20372;-72
2021/10/29 03:27:06;;;;;;;12.50;7.15;;;;;;;10.32;76.66;100756.53;5056099;28;20024;-71
2021/10/29 03:29:31;;;;;;;15.60;7.35;;;;;;;10.32;76.41;100751.38;5038025;28;20029;-72
2021/10/29 03:31:56;;;;;;;13.70;7.68;;;;;;;10.27;76.79;100749.38;5055789;28;20070;-72
2021/10/29 03:34:21;;;;;;;13.50;7.55;;;;;;;10.29;76.74;100739.63;5055680;28;20025;-72
2021/10/29 03:36:47;;;;;;;14.73;7.72;;;;;;;10.31;76.65;100745.41;5055558;28;20056;-72
2021/10/29 03:39:19;;;;;;;13.27;7.38;;;;;;;10.40;76.53;100743.50;5055660;28;20025;-72
2021/10/29 03:41:52;;;;;;;11.77;7.13;;;;;;;10.37;76.29;100736.91;5037678;28;20039;-71
2021/10/29 03:44:25;;;;;;;16.42;7.45;;;;;;;10.36;76.35;100752.63;5056156;28;20127;-72
2021/10/29 03:46:52;;;;;;;14.93;7.63;;;;;;;10.42;76.31;100743.31;5055824;28;20405;-72
2021/10/29 03:49:25;;;;;;;13.35;7.53;;;;;;;10.31;76.44;100732.50;5055616;28;20017;-72
2021/10/29 03:51:55;;;;;;;15.38;7.18;;;;;;;10.35;76.48;100727.75;5037595;28;20035;-72
2021/10/29 03:54:30;;;;;;;14.77;7.50;;;;;;;10.31;76.60;100739.44;5056056;28;20025;-73
2021/10/29 03:56:58;;;;;;;12.70;6.80;;;;;;;10.26;76.47;100724.47;5037472;28;20028;-72
2021/10/29 03:59:23;;;;;;;12.85;6.53;;;;;;;10.32;76.49;100739.25;5055276;28;20490;-72
2021/10/29 04:01:48;;;;;;;15.50;7.28;;;;;;;10.31;76.59;100732.50;5055247;28;20106;-72
2021/10/29 04:04:14;;;;;;;11.90;7.20;;;;;;;10.30;76.52;100748.16;5055208;28;20032;-73
2021/10/29 04:06:39;;;;;;;12.27;7.10;;;;;;;10.28;76.82;100745.78;5055133;28;20032;-73
2021/10/29 04:09:04;;;;;;;15.23;7.55;;;;;;;10.26;76.79;100734.00;5055046;28;20029;-72
2021/10/29 04:11:36;;;;;;;16.35;7.55;;;;;;;10.24;76.85;100735.97;5055019;28;20036;-73
2021/10/29 04:14:02;;;;;;;10.88;7.15;;;;;;;10.36;76.27;100727.56;5037207;28;20075;-72
2021/10/29 04:16:30;;;;;;;11.65;7.05;;;;;;;10.43;76.02;100724.25;5055367;28;20032;-72
2021/10/29 04:18:55;;;;;;;13.73;6.78;;;;;;;10.39;76.12;100726.41;5036975;28;20024;-73
2021/10/29 04:21:20;;;;;;;13.07;6.88;;;;;;;10.39;76.19;100716.88;5054654;28;20403;-72
2021/10/29 04:23:45;;;;;;;14.90;6.85;;;;;;;10.42;76.13;100712.31;5036950;28;20049;-72
2021/10/29 04:26:11;;;;;;;15.55;6.97;;;;;;;10.42;76.00;100709.75;5055273;28;20021;-73
2021/10/29 04:28:41;;;;;;;12.77;6.88;;;;;;;10.44;75.90;100718.88;5054652;28;20112;-72
2021/10/29 04:31:06;;;;;;;15.32;6.88;;;;;;;10.48;75.77;100712.38;5054669;28;20025;-72
2021/10/29 04:33:31;;;;;;;13.88;6.85;;;;;;;10.42;75.93;100715.69;5054626;28;20029;-71
2021/10/29 04:35:57;;;;;;;11.40;6.38;;;;;;;10.47;75.84;100709.94;5054617;28;20095;-72
2021/10/29 04:38:25;;;;;;;13.45;7.03;;;;;;;10.44;76.36;100705.16;5053943;28;20483;-71
2021/10/29 04:40:51;;;;;;;13.05;6.43;;;;;;;10.44;75.65;100705.94;5054997;28;20021;-72
2021/10/29 04:43:16;;;;;;;11.52;7.15;;;;;;;10.37;76.07;100698.16;5054384;28;20387;-72
2021/10/29 04:45:41;;;;;;;11.65;6.65;;;;;;;10.33;76.14;100699.53;5054382;28;20418;-72
2021/10/29 04:48:07;;;;;;;11.13;6.40;;;;;;;10.35;76.59;100699.34;5054252;28;20032;-72
2021/10/29 04:50:33;;;;;;;10.63;6.45;;;;;;;10.32;76.24;100697.13;5036263;28;20028;-72
2021/10/29 04:52:59;;;;;;;9.98;6.80;;;;;;;10.14;76.25;100663.97;5036244;28;20025;-71
2021/10/29 04:55:25;;;;;;;12.20;6.93;;;;;;;10.24;77.02;100694.63;5054140;28;20025;-72
2021/10/29 04:57:50;;;;;;;13.48;6.95;;;;;;;10.24;76.51;100699.81;5054040;28;20080;-73
2021/10/29 05:00:16;;;;;;;12.82;7.05;;;;;;;10.17;76.89;100685.06;5036221;28;20460;-73
2021/10/29 05:02:41;;;;;;;12.50;7.25;;;;;;;10.13;77.05;100667.56;5054013;28;20029;-72
2021/10/29 05:05:08;;;;;;;11.60;6.45;;;;;;;10.08;77.13;100673.28;5038824;28;20108;-73
2021/10/29 05:07:34;;;;;;;12.43;7.10;;;;;;;10.12;77.33;100681.44;5056255;28;20021;-73
2021/10/29 05:09:59;;;;;;;10.13;6.63;;;;;;;10.04;77.29;100673.81;5046938;28;20039;-74
2021/10/29 05:12:26;;;;;;;12.57;6.80;;;;;;;10.10;77.63;100675.69;5036237;28;20032;-72
2021/10/29 05:14:52;;;;;;;15.77;7.55;;;;;;;10.15;77.37;100687.03;5035739;28;20479;-71
2021/10/29 05:17:17;;;;;;;11.40;6.97;;;;;;;10.11;77.56;100685.00;5053562;28;20025;-72
2021/10/29 05:19:43;;;;;;;12.93;7.13;;;;;;;10.11;77.54;100682.44;5053622;28;20082;-72
2021/10/29 05:22:08;;;;;;;15.02;7.32;;;;;;;10.10;77.63;100678.25;5053474;28;20035;-72
2021/10/29 05:24:33;;;;;;;11.45;7.07;;;;;;;10.12;77.59;100682.22;5053532;28;20048;-73
2021/10/29 05:26:59;;;;;;;11.23;7.00;;;;;;;10.12;77.50;100673.69;5053705;28;20017;-71
2021/10/29 05:29:24;;;;;;;12.95;6.97;;;;;;;10.15;77.36;100675.91;5053701;28;20044;-72
2021/10/29 05:31:52;;;;;;;21.73;6.75;;;;;;;10.14;77.34;100682.06;5035638;28;20043;-72
2021/10/29 05:34:18;;;;;;;10.35;6.78;;;;;;;10.22;77.04;100671.59;5053417;28;20057;-72
2021/10/29 05:36:43;;;;;;;15.13;6.43;;;;;;;10.19;77.17;100684.09;5053197;28;20059;-73
2021/10/29 05:39:09;;;;;;;10.73;6.60;;;;;;;10.22;77.21;100683.72;5053539;28;20032;-71
2021/10/29 05:41:35;;;;;;;11.30;6.72;;;;;;;10.19;77.32;100671.19;5053259;28;20490;-72
2021/10/29 05:44:01;;;;;;;13.02;6.32;;;;;;;10.22;77.16;100669.03;5053388;28;20483;-72
2021/10/29 05:46:33;;;;;;;14.68;6.85;;;;;;;10.14;77.62;100667.34;5053262;28;20032;-72
2021/10/29 05:48:59;;;;;;;12.27;7.10;;;;;;;9.98;77.38;100648.75;5053296;28;20036;-73
2021/10/29 05:51:26;;;;;;;16.48;7.10;;;;;;;10.16;77.64;100667.97;5034906;28;20112;-73
2021/10/29 05:54:07;;;;;;;12.88;7.25;;;;;;;10.20;77.49;100662.44;5053600;28;20044;-72
2021/10/29 05:56:32;;;;;;;14.25;7.10;;;;;;;10.11;77.78;100646.28;5035214;28;20021;-72
2021/10/29 05:59:03;;;;;;;11.68;7.05;;;;;;;10.15;77.74;100658.63;5035503;28;20028;-72
2021/10/29 06:01:28;;;;;;;10.00;6.55;;;;;;;10.17;77.52;100653.28;5035377;28;20029;-73
2021/10/29 06:03:54;;;;;;;13.10;7.03;;;;;;;10.20;77.30;100652.13;5053683;28;20380;-74
2021/10/29 06:06:20;;;;;;;11.80;6.82;;;;;;;10.21;77.49;100651.13;5035280;28;20017;-74
2021/10/29 06:08:45;;;;;;;11.18;6.50;;;;;;;10.15;77.83;100650.88;5054471;28;20032;-72
2021/10/29 06:11:10;;;;;;;14.70;6.40;;;;;;;10.24;77.59;100663.66;5036353;28;20021;-73
2021/10/29 06:13:36;;;;;;;16.25;6.93;;;;;;;10.23;77.52;100657.69;5036382;28;20120;-72
2021/10/29 06:16:01;;;;;;;12.77;6.43;;;;;;;10.11;77.10;100625.63;5054274;28;20386;-73
2021/10/29 06:18:27;;;;;;;15.30;6.47;;;;;;;10.25;77.49;100653.16;5054579;28;20071;-72
2021/10/29 06:20:54;;;;;;;13.43;6.80;;;;;;;10.28;77.17;100652.81;5054602;28;20069;-73
2021/10/29 06:23:23;;;;;;;11.70;6.55;;;;;;;10.22;77.59;100663.84;5053847;28;20033;-73
2021/10/29 06:25:49;;;;;;;11.88;6.38;;;;;;;10.27;77.81;100663.31;5054608;28;20016;-74
2021/10/29 06:28:28;;;;;;;10.30;6.20;;;;;;;10.36;77.06;100660.41;5038233;28;20423;-77
2021/10/29 06:30:54;;;;;;;11.98;6.20;;;;;;;10.42;76.78;100651.13;5043365;28;20021;-75
2021/10/29 06:33:22;;;;;;;12.40;6.47;;;;;;;10.43;76.47;100660.44;5060369;28;20033;-76
2021/10/29 06:35:48;;;;;;;11.05;6.60;;;;;;;10.40;76.99;100666.00;5061437;28;20029;-77
2021/10/29 06:38:14;;;;;;;12.38;6.28;;;;;;;10.40;77.14;100663.41;5060626;28;20031;-75
2021/10/29 06:40:42;;;;;;;15.68;6.30;;;;;;;10.49;76.69;100654.53;5060552;28;20024;-76
2021/10/29 06:43:15;;;;;;;11.90;6.20;;;;;;;10.42;76.96;100661.44;5061538;28;20031;-77
2021/10/29 06:46:05;;;;;;;13.40;6.35;;;;;;;10.51;76.46;100647.41;5060160;28;20025;-77
2021/10/29 06:59:30;;;;;;;10.30;5.85;;;;;;;10.67;75.92;100642.91;5054011;28;20036;-73
2021/10/29 07:13:14;;;;;;;11.52;6.20;;;;;;;11.18;74.27;100632.19;5056732;28;20040;-73
2021/10/29 07:42:28;;;;;;;9.45;5.70;;;;;;;15.43;58.78;100642.97;5056143;28;20025;-74
2021/10/29 07:44:53;;;;;;;8.98;5.50;;;;;;;15.69;59.08;100649.63;5037876;28;20056;-74
2021/10/29 07:47:20;;;;;;;8.40;5.53;;;;;;;16.13;57.41;100657.94;5037901;28;20029;-74
2021/10/29 07:49:45;;;;;;;12.30;4.82;;;;;;;16.56;55.17;100650.78;5037631;28;20021;-74
2021/10/29 07:52:10;;;;;;;8.48;4.82;;;;;;;16.23;56.40;100642.53;5055476;28;20035;-75
2021/10/29 07:54:36;;;;;;;9.40;5.07;;;;;;;17.03;54.25;100655.91;5055339;28;20051;-74
2021/10/29 07:57:01;;;;;;;8.10;5.03;;;;;;;16.13;56.25;100657.94;5055306;28;20103;-74
2021/10/29 07:59:27;;;;;;;10.20;5.28;;;;;;;16.94;54.08;100647.66;5055837;28;20021;-76
2021/10/29 08:01:52;;;;;;;8.27;5.15;;;;;;;16.92;54.21;100642.69;5037396;28;20029;-76
2021/10/29 08:04:21;;;;;;;15.10;5.60;;;;;;;17.87;51.42;100661.31;5055835;28;20029;-74
2021/10/29 08:06:48;;;;;;;10.80;5.32;;;;;;;15.02;58.92;100638.53;5055124;28;20021;-74
2021/10/29 08:09:14;;;;;;;12.60;5.60;;;;;;;14.06;62.89;100637.28;5055066;28;20021;-73
2021/10/29 08:11:39;;;;;;;10.80;5.70;;;;;;;13.13;65.98;100650.84;5037199;28;20364;-75
2021/10/29 08:14:04;;;;;;;9.77;5.60;;;;;;;12.67;67.53;100620.69;5054214;28;20021;-74
2021/10/29 08:16:31;;;;;;;9.80;5.45;;;;;;;12.75;67.74;100641.22;5054927;28;20021;-73
2021/10/29 08:18:56;;;;;;;11.85;5.93;;;;;;;12.48;68.87;100625.72;5054882;28;20028;-73
2021/10/29 08:21:21;;;;;;;8.13;5.75;;;;;;;12.50;68.75;100636.69;5036784;28;20103;-71
2021/10/29 08:23:46;;;;;;;11.93;5.97;;;;;;;12.55;68.98;100629.09;5037265;28;20044;-76
2021/10/29 08:26:12;;;;;;;10.88;6.07;;;;;;;12.67;68.66;100618.91;5055187;28;20102;-73
2021/10/29 08:28:41;;;;;;;13.80;5.75;;;;;;;12.35;68.88;100595.44;5055323;28;20024;-73
2021/10/29 08:31:07;;;;;;;11.68;5.85;;;;;;;12.69;68.72;100624.69;5036733;28;20467;-73
2021/10/29 08:33:32;;;;;;;10.82;5.85;;;;;;;12.63;69.09;100618.50;5054635;28;20028;-73
2021/10/29 08:36:00;;;;;;;15.30;6.32;;;;;;;12.60;69.22;100612.91;5054774;28;20052;-73
2021/10/29 08:38:26;;;;;;;10.82;6.03;;;;;;;12.61;69.16;100615.31;5054614;28;20016;-73
2021/10/29 08:40:53;;;;;;;12.65;5.85;;;;;;;12.80;68.88;100611.09;5054533;28;20032;-74
2021/10/29 08:43:19;;;;;;;9.88;5.70;;;;;;;14.38;64.20;100625.78;5054431;28;20029;-73
2021/10/29 08:45:45;;;;;;;12.05;5.40;;;;;;;16.63;56.74;100625.34;5036511;28;20029;-74
2021/10/29 08:48:11;;;;;;;12.88;5.03;;;;;;;17.99;52.01;100624.63;5054457;28;20100;-75
2021/10/29 08:50:37;;;;;;;9.75;5.40;;;;;;;19.30;48.34;100617.81;5054329;28;20032;-74
2021/10/29 08:53:02;;;;;;;10.63;5.25;;;;;;;18.50;49.95;100635.78;5054561;28;20021;-74
2021/10/29 08:55:30;;;;;;;8.65;4.82;;;;;;;18.83;48.97;100600.84;5036330;28;20025;-74
2021/10/29 08:57:56;;;;;;;9.10;4.95;;;;;;;19.36;47.46;100596.66;5036364;28;20112;-72
2021/10/29 09:00:26;;;;;;;7.80;4.60;;;;;;;20.49;45.33;100584.22;5054338;28;20055;-74
2021/10/29 09:03:00;;;;;;;9.57;4.65;;;;;;;20.90;44.33;100572.00;5036137;28;20032;-74
2021/10/29 09:33:05;;;;;;;10.52;5.00;;;;;;;20.36;44.98;100561.06;5054446;28;20028;-75
2021/10/29 09:35:35;;;;;;;10.00;5.22;;;;;;;21.71;42.39;100565.19;5053697;28;20481;-73
2021/10/29 09:38:09;;;;;;;7.90;4.82;;;;;;;22.95;39.58;100556.50;5053781;28;20021;-74
2021/10/29 09:40:39;;;;;;;7.97;4.60;;;;;;;23.08;38.56;100552.47;5035918;28;20021;-73
2021/10/29 09:43:18;;;;;;;10.65;4.90;;;;;;;21.85;41.46;100558.31;5053412;28;20104;-72
2021/10/29 09:45:58;;;;;;;7.47;4.45;;;;;;;23.37;38.00;100549.06;5035327;28;20021;-75
2021/10/29 09:48:31;;;;;;;8.82;4.47;;;;;;;24.23;36.74;100544.72;5035506;28;20032;-74
2021/10/29 09:50:58;;;;;;;10.60;4.47;;;;;;;24.05;37.00;100543.63;5035534;28;20024;-74
2021/10/29 09:53:44;;;;;;;9.48;4.40;;;;;;;24.63;35.29;100553.22;5053308;28;20051;-72
2021/10/29 09:56:55;;;;;;;9.43;4.10;;;;;;;27.13;31.82;100536.19;5053839;28;20029;-74
2021/10/29 09:59:01;;;;;;;7.38;4.05;;;;;;;25.12;34.66;100538.69;5042424;28;20052;-74
2021/10/29 10:01:31;;;;;;;7.97;4.03;;;;;;;23.34;36.97;100539.88;5035336;28;20468;-72
2021/10/29 10:04:04;;;;;;;15.48;3.90;;;;;;;25.03;34.16;100550.22;5053352;28;20029;-74
2021/10/29 10:06:33;;;;;;;9.25;3.63;;;;;;;24.22;36.22;100531.81;5053303;28;20017;-73
2021/10/29 10:09:01;;;;;;;6.22;3.50;;;;;;;24.56;35.60;100538.78;5053260;28;20040;-74
2021/10/29 10:11:28;;;;;;;9.35;3.85;;;;;;;23.70;37.03;100554.56;5053077;28;20021;-74
2021/10/29 10:13:55;;;;;;;9.10;3.85;;;;;;;25.15;34.59;100543.44;5053194;28;20070;-75
2021/10/29 10:16:22;;;;;;;6.85;3.83;;;;;;;24.76;35.14;100541.13;5035393;28;20028;-75
2021/10/29 10:18:48;;;;;;;11.15;3.90;;;;;;;25.11;34.79;100545.03;5053001;28;20086;-74
2021/10/29 10:21:19;;;;;;;7.25;3.70;;;;;;;22.15;39.85;100537.44;5052885;28;20503;-71
2021/10/29 10:23:47;;;;;;;9.98;3.80;;;;;;;19.09;46.69;100525.94;5053803;28;20454;-74
2021/10/29 10:45:37;;;;;;;10.38;4.65;;;;;;;17.32;53.79;100505.22;5057559;28;20132;-74
2021/10/29 10:48:09;;;;;;;9.60;5.45;;;;;;;18.23;51.04;100492.63;5038811;28;20021;-74
2021/10/29 10:50:38;;;;;;;10.85;5.88;;;;;;;21.53;43.30;100492.94;5038938;28;20155;-73
2021/10/29 10:53:29;;;;;;;8.30;5.00;;;;;;;22.67;39.91;100475.56;5038474;28;20043;-73
2021/10/29 10:56:12;;;;;;;8.90;5.63;;;;;;;20.72;44.51;100478.00;5055823;28;20033;-74
2021/10/29 10:58:57;;;;;;;12.88;5.13;;;;;;;21.59;42.29;100480.56;5056639;28;20033;-72
2021/10/29 11:10:12;;;;;;;6.97;4.30;;;;;;;24.37;36.40;100446.31;5056452;28;20036;-74
2021/10/29 11:12:40;;;;;;;8.55;4.47;;;;;;;24.10;37.18;100430.06;5038332;28;20028;-73
2021/10/29 11:15:27;;;;;;;7.07;4.50;;;;;;;22.96;39.32;100442.16;5056142;28;20029;-75
2021/10/29 11:17:54;;;;;;;14.98;4.60;;;;;;;22.64;40.37;100432.16;5055866;28;20036;-74
2021/10/29 11:20:39;;;;;;;6.85;4.38;;;;;;;23.89;38.05;100430.63;5038073;28;20128;-75
2021/10/29 11:23:10;;;;;;;6.68;4.35;;;;;;;23.02;38.90;100421.03;5056291;28;20082;-74
2021/10/29 11:26:04;;;;;;;8.27;4.43;;;;;;;23.71;38.09;100432.16;5038204;28;20082;-74
2021/10/29 11:28:40;;;;;;;12.18;4.10;;;;;;;23.45;38.73;100405.28;5056189;28;20399;-75
2021/10/29 11:31:09;;;;;;;12.38;4.35;;;;;;;23.53;38.51;100399.38;5055972;28;20033;-73
2021/10/29 11:33:39;;;;;;;8.98;4.18;;;;;;;23.33;38.98;100395.94;5056129;28;20035;-73
2021/10/29 11:36:07;;;;;;;7.13;4.00;;;;;;;24.42;37.37;100393.41;5057565;28;20017;-72
2021/10/29 11:38:40;;;;;;;9.20;4.03;;;;;;;23.44;38.81;100386.03;5055660;28;20032;-73
2021/10/29 11:41:11;;;;;;;7.65;3.83;;;;;;;23.51;38.58;100380.44;5039499;28;20020;-73
2021/10/29 11:43:37;;;;;;;7.35;3.55;;;;;;;25.25;36.36;100367.16;5040660;28;20033;-76
2021/10/29 11:46:05;;;;;;;9.00;4.00;;;;;;;24.08;37.16;100373.34;5056694;28;20387;-73
2021/10/29 11:48:35;;;;;;;10.40;3.88;;;;;;;24.44;36.82;100330.56;5036827;28;20017;-75
2021/10/29 11:51:07;;;;;;;13.18;4.20;;;;;;;25.11;35.44;100367.13;5055542;28;20028;-76
2021/10/29 11:53:34;;;;;;;;;;;;;;;25.10;35.53;100369.00;5056038;28;20032;-75
2021/10/29 11:56:04;;;;;;;9.82;3.80;;;;;;;24.81;36.28;100368.50;5055443;28;20001;-75
2021/10/29 11:58:40;;;;;;;8.07;3.55;;;;;;;24.65;36.78;100355.56;5055832;28;20383;-76
2021/10/29 12:01:24;;;;;;;8.43;3.60;;;;;;;23.69;38.12;100353.28;5055446;28;20032;-77
2021/10/29 12:09:28;;;;;;;7.15;3.58;;;;;;;25.61;34.52;100330.19;5057388;28;20036;-72
2021/10/29 12:12:00;;;;;;;7.25;3.50;;;;;;;25.58;34.86;100350.09;5055613;28;20025;-75
2021/10/29 12:14:34;;;;;;;6.20;3.20;;;;;;;26.70;33.04;100340.56;5055260;28;20048;-75
2021/10/29 12:17:24;;;;;;;5.35;2.83;;;;;;;25.07;35.69;100358.25;5037842;28;20029;-73
2021/10/29 12:19:56;;;;;;;6.13;3.40;;;;;;;24.04;38.03;100351.25;5055491;28;20021;-74
2021/10/29 12:27:40;;;;;;;7.72;3.20;;;;;;;23.38;39.54;100324.69;5055765;28;20083;-73
2021/10/29 12:30:15;;;;;;;;;;;;;;;24.68;37.07;100311.91;5055339;28;20021;-73
2021/10/29 12:33:05;;;;;;;9.02;3.20;;;;;;;22.90;39.90;100316.78;5055147;28;19912;-74
2021/10/29 13:03:55;;;;;;;9.52;3.53;;;;;;;18.46;53.32;100290.13;5054668;28;20509;-71
2021/10/29 13:06:20;;;;;;;7.57;3.45;;;;;;;18.64;52.78;100277.66;5054199;28;20043;-72
2021/10/29 13:08:50;;;;;;;7.68;3.28;;;;;;;18.24;53.55;100273.72;5054061;28;20104;-73
2021/10/29 13:11:17;;;;;;;5.88;3.25;;;;;;;18.07;54.29;100278.28;5054539;28;20048;-73
2021/10/29 13:13:48;;;;;;;11.27;3.63;;;;;;;18.34;54.28;100267.81;5054011;28;20017;-71
2021/10/29 13:16:15;;;;;;;9.63;3.20;;;;;;;18.19;54.13;100276.31;5054226;28;20061;-69
2021/10/29 13:21:51;;;;;;;13.68;3.33;;;;;;;18.22;54.12;100279.22;5053762;28;20068;-72
2021/10/29 13:37:56;;;;;;;9.40;3.00;;;;;;;18.12;54.19;100260.03;5053341;28;20475;-72
2021/10/29 13:57:08;;;;;;;8.57;2.97;;;;;;;17.60;55.86;100243.06;5053951;28;20063;-71
2021/10/29 14:16:48;;;;;;;6.05;2.80;;;;;;;17.21;58.09;100253.63;5057533;28;20090;-72
2021/10/29 14:32:20;;;;;;;9.20;3.40;;;;;;;17.15;58.63;100278.09;5057666;28;20060;-73
2021/10/29 14:34:51;;;;;;;10.90;3.58;;;;;;;17.22;58.13;100280.53;5039082;28;20024;-72
2021/10/29 14:40:07;;;;;;;11.52;3.40;;;;;;;17.12;58.79;100284.59;5056240;28;20523;-74
2021/10/29 14:42:37;;;;;;;6.80;3.45;;;;;;;17.09;58.72;100276.44;5056040;28;20025;-72
2021/10/29 14:45:10;;;;;;;7.30;3.30;;;;;;;17.05;58.90;100276.13;5037957;28;20488;-71
2021/10/29 14:47:46;;;;;;;10.32;3.47;;;;;;;17.06;58.94;100276.91;5056412;28;20017;-73
2021/10/29 14:50:25;;;;;;;11.32;3.67;;;;;;;17.05;58.91;100285.78;5055895;28;20103;-72
2021/10/29 15:01:23;;;;;;;9.57;3.97;;;;;;;16.90;59.65;100284.56;5056108;28;20510;-71
2021/10/29 15:04:11;;;;;;;9.07;3.45;;;;;;;16.96;59.67;100295.88;5056251;28;20359;-74
2021/10/29 15:07:10;;;;;;;7.03;3.20;;;;;;;16.88;59.62;100298.88;5055512;28;20383;-73